sensor_id;sensor_type;location;lat;lon;timestamp;P1;durP1;ratioP1;P2;durP2;ratioP2
66919;SDS011;53831;52.090;17.026;2023-04-15T00:00:24;14.60;;;7.40;;
66919;SDS011;53831;52.090;17.026;2023-04-15T00:01:25;12.00;;;7.40;;
66919;SDS011;53831;52.090;17.026;2023-04-15T00:02:26;11.60;;;6.90;;
66919;SDS011;53831;52.090;17.026;2023-04-15T00:03:27;12.20;;;7.40;;
66919;SDS011;53831;52.090;17.026;2023-04-15T00:04:28;11.70;;;6.80;;
66919;SDS011;53831;52.090;17.026;2023-04-15T00:05:31;12.90;;;7.10;;
66919;SDS011;53831;52.090;17.026;2023-04-15T00:06:32;12.70;;;6.90;;
66919;SDS011;53831;52.090;17.026;2023-04-15T00:07:33;13.60;;;7.10;;
66919;SDS011;53831;52.090;17.026;2023-04-15T00:08:33;12.30;;;6.90;;
66919;SDS011;53831;52.090;17.026;2023-04-15T00:09:34;14.90;;;7.90;;
66919;SDS011;53831;52.090;17.026;2023-04-15T00:10:35;14.90;;;7.50;;
66919;SDS011;53831;52.090;17.026;2023-04-15T00:11:35;12.90;;;6.80;;
66919;SDS011;53831;52.090;17.026;2023-04-15T00:12:36;14.60;;;7.10;;
66919;SDS011;53831;52.090;17.026;2023-04-15T00:13:37;12.40;;;6.60;;
66919;SDS011;53831;52.090;17.026;2023-04-15T00:14:39;14.10;;;7.90;;
66919;SDS011;53831;52.090;17.026;2023-04-15T00:15:39;12.50;;;7.00;;
66919;SDS011;53831;52.090;17.026;2023-04-15T00:16:40;13.60;;;7.40;;
66919;SDS011;53831;52.090;17.026;2023-04-15T00:17:41;12.60;;;6.70;;
66919;SDS011;53831;52.090;17.026;2023-04-15T00:18:42;12.60;;;7.00;;
66919;SDS011;53831;52.090;17.026;2023-04-15T00:19:43;12.60;;;6.70;;
66919;SDS011;53831;52.090;17.026;2023-04-15T00:20:46;11.90;;;7.20;;
66919;SDS011;53831;52.090;17.026;2023-04-15T00:21:47;13.10;;;7.50;;
66919;SDS011;53831;52.090;17.026;2023-04-15T00:22:48;14.70;;;7.30;;
66919;SDS011;53831;52.090;17.026;2023-04-15T00:23:48;11.30;;;6.50;;
66919;SDS011;53831;52.090;17.026;2023-04-15T00:24:52;13.90;;;7.40;;
66919;SDS011;53831;52.090;17.026;2023-04-15T00:25:53;13.10;;;7.10;;
66919;SDS011;53831;52.090;17.026;2023-04-15T00:27:55;14.30;;;7.30;;
66919;SDS011;53831;52.090;17.026;2023-04-15T00:28:57;12.70;;;7.60;;
66919;SDS011;53831;52.090;17.026;2023-04-15T00:29:57;12.40;;;7.60;;
66919;SDS011;53831;52.090;17.026;2023-04-15T00:30:58;16.50;;;8.20;;
66919;SDS011;53831;52.090;17.026;2023-04-15T00:31:59;14.20;;;7.70;;
66919;SDS011;53831;52.090;17.026;2023-04-15T00:33:00;14.60;;;7.90;;
66919;SDS011;53831;52.090;17.026;2023-04-15T00:34:01;12.70;;;7.90;;
66919;SDS011;53831;52.090;17.026;2023-04-15T00:35:03;14.90;;;8.00;;
66919;SDS011;53831;52.090;17.026;2023-04-15T00:36:05;13.60;;;7.90;;
66919;SDS011;53831;52.090;17.026;2023-04-15T00:37:06;17.10;;;7.70;;
66919;SDS011;53831;52.090;17.026;2023-04-15T00:38:07;14.10;;;8.10;;
66919;SDS011;53831;52.090;17.026;2023-04-15T00:39:08;15.70;;;8.40;;
66919;SDS011;53831;52.090;17.026;2023-04-15T00:40:11;17.10;;;8.20;;
66919;SDS011;53831;52.090;17.026;2023-04-15T00:41:12;14.50;;;8.10;;
66919;SDS011;53831;52.090;17.026;2023-04-15T00:42:14;14.70;;;8.10;;
66919;SDS011;53831;52.090;17.026;2023-04-15T00:43:15;14.40;;;8.60;;
66919;SDS011;53831;52.090;17.026;2023-04-15T00:44:15;15.20;;;7.60;;
66919;SDS011;53831;52.090;17.026;2023-04-15T00:45:18;15.80;;;8.40;;
66919;SDS011;53831;52.090;17.026;2023-04-15T00:46:19;12.50;;;7.90;;
66919;SDS011;53831;52.090;17.026;2023-04-15T00:47:21;13.80;;;8.40;;
66919;SDS011;53831;52.090;17.026;2023-04-15T00:48:22;13.20;;;8.30;;
66919;SDS011;53831;52.090;17.026;2023-04-15T00:49:23;15.30;;;8.20;;
66919;SDS011;53831;52.090;17.026;2023-04-15T00:50:25;13.60;;;7.90;;
66919;SDS011;53831;52.090;17.026;2023-04-15T00:51:25;15.90;;;8.70;;
66919;SDS011;53831;52.090;17.026;2023-04-15T00:52:26;18.50;;;8.50;;
66919;SDS011;53831;52.090;17.026;2023-04-15T00:53:27;12.40;;;7.80;;
66919;SDS011;53831;52.090;17.026;2023-04-15T00:54:27;14.10;;;8.40;;
66919;SDS011;53831;52.090;17.026;2023-04-15T00:55:28;14.50;;;8.00;;
66919;SDS011;53831;52.090;17.026;2023-04-15T00:56:30;16.20;;;7.90;;
66919;SDS011;53831;52.090;17.026;2023-04-15T00:57:31;15.50;;;8.60;;
66919;SDS011;53831;52.090;17.026;2023-04-15T00:58:32;12.00;;;8.10;;
66919;SDS011;53831;52.090;17.026;2023-04-15T00:59:33;17.00;;;8.10;;
66919;SDS011;53831;52.090;17.026;2023-04-15T01:00:34;12.80;;;8.10;;
66919;SDS011;53831;52.090;17.026;2023-04-15T01:01:36;13.50;;;7.90;;
66919;SDS011;53831;52.090;17.026;2023-04-15T01:02:37;17.30;;;8.60;;
66919;SDS011;53831;52.090;17.026;2023-04-15T01:03:38;14.50;;;8.40;;
66919;SDS011;53831;52.090;17.026;2023-04-15T01:04:40;14.70;;;8.40;;
66919;SDS011;53831;52.090;17.026;2023-04-15T01:05:40;16.00;;;9.10;;
66919;SDS011;53831;52.090;17.026;2023-04-15T01:07:42;13.20;;;8.10;;
66919;SDS011;53831;52.090;17.026;2023-04-15T01:08:43;15.70;;;8.50;;
66919;SDS011;53831;52.090;17.026;2023-04-15T01:09:45;15.60;;;8.20;;
66919;SDS011;53831;52.090;17.026;2023-04-15T01:10:47;14.50;;;8.10;;
66919;SDS011;53831;52.090;17.026;2023-04-15T01:11:48;13.40;;;7.60;;
66919;SDS011;53831;52.090;17.026;2023-04-15T01:12:49;13.50;;;8.00;;
66919;SDS011;53831;52.090;17.026;2023-04-15T01:13:51;13.80;;;8.30;;
66919;SDS011;53831;52.090;17.026;2023-04-15T01:14:52;13.90;;;8.50;;
66919;SDS011;53831;52.090;17.026;2023-04-15T01:15:55;13.40;;;7.80;;
66919;SDS011;53831;52.090;17.026;2023-04-15T01:16:57;14.20;;;8.20;;
66919;SDS011;53831;52.090;17.026;2023-04-15T01:17:58;15.60;;;9.30;;
66919;SDS011;53831;52.090;17.026;2023-04-15T01:18:58;14.90;;;8.50;;
66919;SDS011;53831;52.090;17.026;2023-04-15T01:20:00;14.60;;;8.50;;
66919;SDS011;53831;52.090;17.026;2023-04-15T01:21:04;14.90;;;7.90;;
66919;SDS011;53831;52.090;17.026;2023-04-15T01:22:05;16.10;;;9.00;;
66919;SDS011;53831;52.090;17.026;2023-04-15T01:23:06;12.50;;;8.10;;
66919;SDS011;53831;52.090;17.026;2023-04-15T01:24:08;14.80;;;8.70;;
66919;SDS011;53831;52.090;17.026;2023-04-15T01:25:11;16.10;;;8.30;;
66919;SDS011;53831;52.090;17.026;2023-04-15T01:26:17;15.30;;;8.30;;
66919;SDS011;53831;52.090;17.026;2023-04-15T01:27:20;14.10;;;8.50;;
66919;SDS011;53831;52.090;17.026;2023-04-15T01:28:21;15.00;;;8.70;;
66919;SDS011;53831;52.090;17.026;2023-04-15T01:29:22;14.10;;;8.30;;
66919;SDS011;53831;52.090;17.026;2023-04-15T01:30:24;14.50;;;8.40;;
66919;SDS011;53831;52.090;17.026;2023-04-15T01:31:26;15.70;;;8.80;;
66919;SDS011;53831;52.090;17.026;2023-04-15T01:32:27;15.60;;;9.10;;
66919;SDS011;53831;52.090;17.026;2023-04-15T01:33:28;15.00;;;8.40;;
66919;SDS011;53831;52.090;17.026;2023-04-15T01:34:29;15.20;;;8.60;;
66919;SDS011;53831;52.090;17.026;2023-04-15T01:35:30;14.90;;;8.90;;
66919;SDS011;53831;52.090;17.026;2023-04-15T01:36:31;15.50;;;8.30;;
66919;SDS011;53831;52.090;17.026;2023-04-15T01:37:32;15.80;;;8.90;;
66919;SDS011;53831;52.090;17.026;2023-04-15T01:38:33;16.30;;;8.80;;
66919;SDS011;53831;52.090;17.026;2023-04-15T01:39:34;14.90;;;9.00;;
66919;SDS011;53831;52.090;17.026;2023-04-15T01:40:35;15.60;;;8.80;;
66919;SDS011;53831;52.090;17.026;2023-04-15T01:41:35;16.20;;;8.60;;
66919;SDS011;53831;52.090;17.026;2023-04-15T01:42:36;14.20;;;8.80;;
66919;SDS011;53831;52.090;17.026;2023-04-15T01:43:37;16.60;;;9.40;;
66919;SDS011;53831;52.090;17.026;2023-04-15T01:44:38;16.90;;;9.40;;
66919;SDS011;53831;52.090;17.026;2023-04-15T01:45:39;16.40;;;9.00;;
66919;SDS011;53831;52.090;17.026;2023-04-15T01:46:40;13.70;;;8.40;;
66919;SDS011;53831;52.090;17.026;2023-04-15T01:47:41;16.40;;;9.10;;
66919;SDS011;53831;52.090;17.026;2023-04-15T01:48:43;16.80;;;8.70;;
66919;SDS011;53831;52.090;17.026;2023-04-15T01:49:44;17.30;;;9.50;;
66919;SDS011;53831;52.090;17.026;2023-04-15T01:51:46;15.80;;;8.90;;
66919;SDS011;53831;52.090;17.026;2023-04-15T01:52:46;18.80;;;9.60;;
66919;SDS011;53831;52.090;17.026;2023-04-15T01:53:47;16.20;;;9.80;;
66919;SDS011;53831;52.090;17.026;2023-04-15T01:54:48;16.40;;;9.60;;
66919;SDS011;53831;52.090;17.026;2023-04-15T01:55:49;15.30;;;8.90;;
66919;SDS011;53831;52.090;17.026;2023-04-15T01:56:51;15.80;;;9.50;;
66919;SDS011;53831;52.090;17.026;2023-04-15T01:57:51;16.80;;;9.60;;
66919;SDS011;53831;52.090;17.026;2023-04-15T01:58:52;16.20;;;9.00;;
66919;SDS011;53831;52.090;17.026;2023-04-15T01:59:53;13.60;;;8.90;;
66919;SDS011;53831;52.090;17.026;2023-04-15T02:00:55;15.80;;;9.40;;
66919;SDS011;53831;52.090;17.026;2023-04-15T02:01:57;16.20;;;9.00;;
66919;SDS011;53831;52.090;17.026;2023-04-15T02:02:57;16.50;;;9.10;;
66919;SDS011;53831;52.090;17.026;2023-04-15T02:03:59;16.40;;;9.30;;
66919;SDS011;53831;52.090;17.026;2023-04-15T02:05:00;17.30;;;9.60;;
66919;SDS011;53831;52.090;17.026;2023-04-15T02:06:01;15.50;;;9.10;;
66919;SDS011;53831;52.090;17.026;2023-04-15T02:07:02;15.50;;;9.00;;
66919;SDS011;53831;52.090;17.026;2023-04-15T02:08:03;15.20;;;9.20;;
66919;SDS011;53831;52.090;17.026;2023-04-15T02:09:04;16.30;;;9.50;;
66919;SDS011;53831;52.090;17.026;2023-04-15T02:10:05;15.10;;;9.70;;
66919;SDS011;53831;52.090;17.026;2023-04-15T02:11:05;17.50;;;10.30;;
66919;SDS011;53831;52.090;17.026;2023-04-15T02:12:06;17.00;;;10.50;;
66919;SDS011;53831;52.090;17.026;2023-04-15T02:13:07;17.30;;;9.90;;
66919;SDS011;53831;52.090;17.026;2023-04-15T02:14:08;18.10;;;10.20;;
66919;SDS011;53831;52.090;17.026;2023-04-15T02:15:09;19.30;;;10.30;;
66919;SDS011;53831;52.090;17.026;2023-04-15T02:16:17;17.00;;;10.00;;
66919;SDS011;53831;52.090;17.026;2023-04-15T02:17:18;18.90;;;10.70;;
66919;SDS011;53831;52.090;17.026;2023-04-15T02:18:19;19.40;;;10.30;;
66919;SDS011;53831;52.090;17.026;2023-04-15T02:19:20;16.50;;;10.40;;
66919;SDS011;53831;52.090;17.026;2023-04-15T02:20:22;19.40;;;10.00;;
66919;SDS011;53831;52.090;17.026;2023-04-15T02:21:22;16.70;;;10.30;;
66919;SDS011;53831;52.090;17.026;2023-04-15T02:22:23;18.60;;;10.10;;
66919;SDS011;53831;52.090;17.026;2023-04-15T02:23:23;17.00;;;9.80;;
66919;SDS011;53831;52.090;17.026;2023-04-15T02:24:25;16.10;;;9.60;;
66919;SDS011;53831;52.090;17.026;2023-04-15T02:25:25;16.40;;;10.20;;
66919;SDS011;53831;52.090;17.026;2023-04-15T02:26:26;16.30;;;9.60;;
66919;SDS011;53831;52.090;17.026;2023-04-15T02:27:28;17.80;;;10.30;;
66919;SDS011;53831;52.090;17.026;2023-04-15T02:28:30;17.50;;;10.30;;
66919;SDS011;53831;52.090;17.026;2023-04-15T02:29:31;16.40;;;10.10;;
66919;SDS011;53831;52.090;17.026;2023-04-15T02:30:32;17.60;;;10.20;;
66919;SDS011;53831;52.090;17.026;2023-04-15T02:31:35;17.40;;;10.00;;
66919;SDS011;53831;52.090;17.026;2023-04-15T02:32:40;17.40;;;10.30;;
66919;SDS011;53831;52.090;17.026;2023-04-15T02:33:43;18.20;;;10.50;;
66919;SDS011;53831;52.090;17.026;2023-04-15T02:34:44;19.70;;;10.10;;
66919;SDS011;53831;52.090;17.026;2023-04-15T02:35:44;16.20;;;10.20;;
66919;SDS011;53831;52.090;17.026;2023-04-15T02:36:45;17.40;;;9.90;;
66919;SDS011;53831;52.090;17.026;2023-04-15T02:37:48;18.10;;;10.50;;
66919;SDS011;53831;52.090;17.026;2023-04-15T02:38:49;19.30;;;11.20;;
66919;SDS011;53831;52.090;17.026;2023-04-15T02:41:53;19.00;;;10.30;;
66919;SDS011;53831;52.090;17.026;2023-04-15T02:42:54;16.30;;;10.10;;
66919;SDS011;53831;52.090;17.026;2023-04-15T02:43:55;17.30;;;9.90;;
66919;SDS011;53831;52.090;17.026;2023-04-15T02:44:56;18.50;;;10.70;;
66919;SDS011;53831;52.090;17.026;2023-04-15T02:45:58;18.30;;;10.10;;
66919;SDS011;53831;52.090;17.026;2023-04-15T02:47:01;17.50;;;10.70;;
66919;SDS011;53831;52.090;17.026;2023-04-15T02:48:03;20.00;;;10.70;;
66919;SDS011;53831;52.090;17.026;2023-04-15T02:49:05;16.90;;;10.90;;
66919;SDS011;53831;52.090;17.026;2023-04-15T02:50:10;19.50;;;10.50;;
66919;SDS011;53831;52.090;17.026;2023-04-15T02:51:17;19.30;;;11.00;;
66919;SDS011;53831;52.090;17.026;2023-04-15T02:52:22;20.10;;;11.10;;
66919;SDS011;53831;52.090;17.026;2023-04-15T02:53:24;20.40;;;11.40;;
66919;SDS011;53831;52.090;17.026;2023-04-15T02:55:28;19.40;;;10.50;;
66919;SDS011;53831;52.090;17.026;2023-04-15T02:56:29;18.40;;;10.40;;
66919;SDS011;53831;52.090;17.026;2023-04-15T02:57:30;19.00;;;10.80;;
66919;SDS011;53831;52.090;17.026;2023-04-15T02:58:32;19.00;;;10.40;;
66919;SDS011;53831;52.090;17.026;2023-04-15T02:59:34;17.80;;;10.80;;
66919;SDS011;53831;52.090;17.026;2023-04-15T03:00:35;18.40;;;10.90;;
66919;SDS011;53831;52.090;17.026;2023-04-15T03:01:35;20.70;;;11.10;;
66919;SDS011;53831;52.090;17.026;2023-04-15T03:02:37;18.80;;;10.90;;
66919;SDS011;53831;52.090;17.026;2023-04-15T03:03:39;18.20;;;10.60;;
66919;SDS011;53831;52.090;17.026;2023-04-15T03:04:39;17.80;;;10.90;;
66919;SDS011;53831;52.090;17.026;2023-04-15T03:06:41;19.10;;;10.60;;
66919;SDS011;53831;52.090;17.026;2023-04-15T03:07:43;18.80;;;10.50;;
66919;SDS011;53831;52.090;17.026;2023-04-15T03:08:44;18.30;;;10.80;;
66919;SDS011;53831;52.090;17.026;2023-04-15T03:09:45;21.20;;;11.50;;
66919;SDS011;53831;52.090;17.026;2023-04-15T03:10:47;19.80;;;11.00;;
66919;SDS011;53831;52.090;17.026;2023-04-15T03:11:48;18.10;;;10.90;;
66919;SDS011;53831;52.090;17.026;2023-04-15T03:12:50;19.10;;;11.30;;
66919;SDS011;53831;52.090;17.026;2023-04-15T03:13:52;17.90;;;10.60;;
66919;SDS011;53831;52.090;17.026;2023-04-15T03:14:59;22.90;;;10.90;;
66919;SDS011;53831;52.090;17.026;2023-04-15T03:16:07;18.00;;;10.70;;
66919;SDS011;53831;52.090;17.026;2023-04-15T03:17:07;20.10;;;10.40;;
66919;SDS011;53831;52.090;17.026;2023-04-15T03:18:08;17.90;;;10.20;;
66919;SDS011;53831;52.090;17.026;2023-04-15T03:19:09;20.80;;;11.20;;
66919;SDS011;53831;52.090;17.026;2023-04-15T03:20:12;18.20;;;10.30;;
66919;SDS011;53831;52.090;17.026;2023-04-15T03:21:13;18.10;;;11.50;;
66919;SDS011;53831;52.090;17.026;2023-04-15T03:23:14;18.60;;;10.00;;
66919;SDS011;53831;52.090;17.026;2023-04-15T03:24:15;18.10;;;10.70;;
66919;SDS011;53831;52.090;17.026;2023-04-15T03:25:16;20.00;;;10.80;;
66919;SDS011;53831;52.090;17.026;2023-04-15T03:26:27;19.40;;;11.00;;
66919;SDS011;53831;52.090;17.026;2023-04-15T03:27:29;19.60;;;11.20;;
66919;SDS011;53831;52.090;17.026;2023-04-15T03:28:33;18.10;;;10.60;;
66919;SDS011;53831;52.090;17.026;2023-04-15T03:29:34;19.40;;;11.00;;
66919;SDS011;53831;52.090;17.026;2023-04-15T03:30:35;20.10;;;10.80;;
66919;SDS011;53831;52.090;17.026;2023-04-15T03:31:35;18.60;;;10.50;;
66919;SDS011;53831;52.090;17.026;2023-04-15T03:32:36;19.80;;;11.10;;
66919;SDS011;53831;52.090;17.026;2023-04-15T03:33:39;19.50;;;10.50;;
66919;SDS011;53831;52.090;17.026;2023-04-15T03:34:40;19.10;;;10.70;;
66919;SDS011;53831;52.090;17.026;2023-04-15T03:35:41;19.20;;;10.10;;
66919;SDS011;53831;52.090;17.026;2023-04-15T03:36:42;20.90;;;12.10;;
66919;SDS011;53831;52.090;17.026;2023-04-15T03:37:43;19.00;;;10.70;;
66919;SDS011;53831;52.090;17.026;2023-04-15T03:38:43;19.90;;;11.20;;
66919;SDS011;53831;52.090;17.026;2023-04-15T03:39:44;20.40;;;11.80;;
66919;SDS011;53831;52.090;17.026;2023-04-15T03:40:45;18.50;;;11.40;;
66919;SDS011;53831;52.090;17.026;2023-04-15T03:41:46;20.70;;;11.40;;
66919;SDS011;53831;52.090;17.026;2023-04-15T03:42:47;20.00;;;11.50;;
66919;SDS011;53831;52.090;17.026;2023-04-15T03:43:48;19.00;;;10.50;;
66919;SDS011;53831;52.090;17.026;2023-04-15T03:44:51;18.90;;;11.30;;
66919;SDS011;53831;52.090;17.026;2023-04-15T03:45:52;18.80;;;10.70;;
66919;SDS011;53831;52.090;17.026;2023-04-15T03:46:53;18.30;;;10.40;;
66919;SDS011;53831;52.090;17.026;2023-04-15T03:47:53;19.40;;;11.50;;
66919;SDS011;53831;52.090;17.026;2023-04-15T03:48:54;19.80;;;11.40;;
66919;SDS011;53831;52.090;17.026;2023-04-15T03:49:55;18.90;;;11.20;;
66919;SDS011;53831;52.090;17.026;2023-04-15T03:50:56;18.40;;;10.40;;
66919;SDS011;53831;52.090;17.026;2023-04-15T03:51:56;20.00;;;11.70;;
66919;SDS011;53831;52.090;17.026;2023-04-15T03:52:57;21.40;;;11.40;;
66919;SDS011;53831;52.090;17.026;2023-04-15T03:53:58;19.60;;;11.50;;
66919;SDS011;53831;52.090;17.026;2023-04-15T03:54:58;19.90;;;12.00;;
66919;SDS011;53831;52.090;17.026;2023-04-15T03:55:59;19.60;;;11.40;;
66919;SDS011;53831;52.090;17.026;2023-04-15T03:57:00;21.80;;;11.30;;
66919;SDS011;53831;52.090;17.026;2023-04-15T03:58:01;22.10;;;11.80;;
66919;SDS011;53831;52.090;17.026;2023-04-15T03:59:02;20.60;;;11.60;;
66919;SDS011;53831;52.090;17.026;2023-04-15T04:00:04;18.80;;;11.10;;
66919;SDS011;53831;52.090;17.026;2023-04-15T04:01:12;20.30;;;11.20;;
66919;SDS011;53831;52.090;17.026;2023-04-15T04:02:13;19.70;;;11.80;;
66919;SDS011;53831;52.090;17.026;2023-04-15T04:03:13;23.50;;;11.70;;
66919;SDS011;53831;52.090;17.026;2023-04-15T04:04:14;20.60;;;11.80;;
66919;SDS011;53831;52.090;17.026;2023-04-15T04:05:15;18.50;;;10.50;;
66919;SDS011;53831;52.090;17.026;2023-04-15T04:06:16;19.20;;;11.40;;
66919;SDS011;53831;52.090;17.026;2023-04-15T04:07:17;21.00;;;12.20;;
66919;SDS011;53831;52.090;17.026;2023-04-15T04:08:17;19.90;;;11.80;;
66919;SDS011;53831;52.090;17.026;2023-04-15T04:09:19;20.10;;;12.00;;
66919;SDS011;53831;52.090;17.026;2023-04-15T04:10:20;21.00;;;11.90;;
66919;SDS011;53831;52.090;17.026;2023-04-15T04:11:21;21.70;;;11.60;;
66919;SDS011;53831;52.090;17.026;2023-04-15T04:12:21;19.30;;;11.40;;
66919;SDS011;53831;52.090;17.026;2023-04-15T04:13:22;19.00;;;11.00;;
66919;SDS011;53831;52.090;17.026;2023-04-15T04:14:23;20.70;;;10.80;;
66919;SDS011;53831;52.090;17.026;2023-04-15T04:15:29;19.70;;;11.90;;
66919;SDS011;53831;52.090;17.026;2023-04-15T04:16:30;22.20;;;11.50;;
66919;SDS011;53831;52.090;17.026;2023-04-15T04:17:30;21.00;;;11.80;;
66919;SDS011;53831;52.090;17.026;2023-04-15T04:18:31;19.70;;;11.30;;
66919;SDS011;53831;52.090;17.026;2023-04-15T04:19:32;20.50;;;12.00;;
66919;SDS011;53831;52.090;17.026;2023-04-15T04:20:33;19.40;;;11.20;;
66919;SDS011;53831;52.090;17.026;2023-04-15T04:21:34;19.60;;;11.50;;
66919;SDS011;53831;52.090;17.026;2023-04-15T04:22:39;18.90;;;11.70;;
66919;SDS011;53831;52.090;17.026;2023-04-15T04:23:40;20.80;;;12.10;;
66919;SDS011;53831;52.090;17.026;2023-04-15T04:24:41;20.20;;;11.90;;
66919;SDS011;53831;52.090;17.026;2023-04-15T04:25:42;21.70;;;11.70;;
66919;SDS011;53831;52.090;17.026;2023-04-15T04:26:43;20.90;;;12.20;;
66919;SDS011;53831;52.090;17.026;2023-04-15T04:27:43;17.90;;;11.30;;
66919;SDS011;53831;52.090;17.026;2023-04-15T04:28:45;18.90;;;11.20;;
66919;SDS011;53831;52.090;17.026;2023-04-15T04:29:45;20.70;;;11.70;;
66919;SDS011;53831;52.090;17.026;2023-04-15T04:30:47;20.30;;;11.40;;
66919;SDS011;53831;52.090;17.026;2023-04-15T04:31:48;19.90;;;11.60;;
66919;SDS011;53831;52.090;17.026;2023-04-15T04:32:49;19.40;;;11.90;;
66919;SDS011;53831;52.090;17.026;2023-04-15T04:33:50;17.90;;;11.10;;
66919;SDS011;53831;52.090;17.026;2023-04-15T04:34:51;19.80;;;11.40;;
66919;SDS011;53831;52.090;17.026;2023-04-15T04:35:51;20.10;;;11.60;;
66919;SDS011;53831;52.090;17.026;2023-04-15T04:36:52;21.70;;;11.60;;
66919;SDS011;53831;52.090;17.026;2023-04-15T04:37:52;20.20;;;11.60;;
66919;SDS011;53831;52.090;17.026;2023-04-15T04:38:53;19.60;;;11.70;;
66919;SDS011;53831;52.090;17.026;2023-04-15T04:39:54;20.00;;;11.60;;
66919;SDS011;53831;52.090;17.026;2023-04-15T04:40:55;20.30;;;11.40;;
66919;SDS011;53831;52.090;17.026;2023-04-15T04:41:55;20.50;;;12.40;;
66919;SDS011;53831;52.090;17.026;2023-04-15T04:42:57;19.20;;;11.70;;
66919;SDS011;53831;52.090;17.026;2023-04-15T04:43:58;21.70;;;12.00;;
66919;SDS011;53831;52.090;17.026;2023-04-15T04:44:58;18.90;;;11.70;;
66919;SDS011;53831;52.090;17.026;2023-04-15T04:46:06;18.30;;;11.40;;
66919;SDS011;53831;52.090;17.026;2023-04-15T04:47:07;21.30;;;11.80;;
66919;SDS011;53831;52.090;17.026;2023-04-15T04:48:07;20.10;;;12.10;;
66919;SDS011;53831;52.090;17.026;2023-04-15T04:49:09;21.20;;;11.70;;
66919;SDS011;53831;52.090;17.026;2023-04-15T04:50:10;19.70;;;12.20;;
66919;SDS011;53831;52.090;17.026;2023-04-15T04:51:11;21.00;;;12.10;;
66919;SDS011;53831;52.090;17.026;2023-04-15T04:52:12;19.30;;;11.80;;
66919;SDS011;53831;52.090;17.026;2023-04-15T04:53:13;20.20;;;11.60;;
66919;SDS011;53831;52.090;17.026;2023-04-15T04:54:14;18.40;;;11.40;;
66919;SDS011;53831;52.090;17.026;2023-04-15T04:55:15;21.40;;;11.80;;
66919;SDS011;53831;52.090;17.026;2023-04-15T04:56:16;20.40;;;11.90;;
66919;SDS011;53831;52.090;17.026;2023-04-15T04:57:17;20.10;;;11.90;;
66919;SDS011;53831;52.090;17.026;2023-04-15T04:58:17;18.00;;;11.10;;
66919;SDS011;53831;52.090;17.026;2023-04-15T04:59:18;19.20;;;11.40;;
66919;SDS011;53831;52.090;17.026;2023-04-15T05:00:19;20.20;;;12.30;;
66919;SDS011;53831;52.090;17.026;2023-04-15T05:01:20;18.90;;;11.80;;
66919;SDS011;53831;52.090;17.026;2023-04-15T05:02:21;23.00;;;11.70;;
66919;SDS011;53831;52.090;17.026;2023-04-15T05:03:21;19.00;;;11.70;;
66919;SDS011;53831;52.090;17.026;2023-04-15T05:04:22;19.00;;;11.70;;
66919;SDS011;53831;52.090;17.026;2023-04-15T05:05:23;20.80;;;12.10;;
66919;SDS011;53831;52.090;17.026;2023-04-15T05:06:23;18.50;;;11.50;;
66919;SDS011;53831;52.090;17.026;2023-04-15T05:07:24;20.10;;;11.20;;
66919;SDS011;53831;52.090;17.026;2023-04-15T05:08:25;21.70;;;11.60;;
66919;SDS011;53831;52.090;17.026;2023-04-15T05:09:25;20.70;;;11.10;;
66919;SDS011;53831;52.090;17.026;2023-04-15T05:10:26;20.70;;;11.20;;
66919;SDS011;53831;52.090;17.026;2023-04-15T05:11:27;20.80;;;11.90;;
66919;SDS011;53831;52.090;17.026;2023-04-15T05:12:28;20.80;;;11.90;;
66919;SDS011;53831;52.090;17.026;2023-04-15T05:13:29;19.70;;;11.40;;
66919;SDS011;53831;52.090;17.026;2023-04-15T05:14:29;19.90;;;11.50;;
66919;SDS011;53831;52.090;17.026;2023-04-15T05:15:31;20.60;;;12.20;;
66919;SDS011;53831;52.090;17.026;2023-04-15T05:16:32;20.40;;;12.00;;
66919;SDS011;53831;52.090;17.026;2023-04-15T05:17:33;20.70;;;11.80;;
66919;SDS011;53831;52.090;17.026;2023-04-15T05:18:34;19.10;;;11.70;;
66919;SDS011;53831;52.090;17.026;2023-04-15T05:20:37;18.50;;;11.30;;
66919;SDS011;53831;52.090;17.026;2023-04-15T05:22:38;20.70;;;11.20;;
66919;SDS011;53831;52.090;17.026;2023-04-15T05:23:39;17.90;;;11.10;;
66919;SDS011;53831;52.090;17.026;2023-04-15T05:24:40;19.70;;;11.60;;
66919;SDS011;53831;52.090;17.026;2023-04-15T05:25:41;19.40;;;11.60;;
66919;SDS011;53831;52.090;17.026;2023-04-15T05:26:42;18.40;;;11.40;;
66919;SDS011;53831;52.090;17.026;2023-04-15T05:27:43;21.30;;;12.60;;
66919;SDS011;53831;52.090;17.026;2023-04-15T05:28:44;19.20;;;11.30;;
66919;SDS011;53831;52.090;17.026;2023-04-15T05:30:46;18.10;;;11.30;;
66919;SDS011;53831;52.090;17.026;2023-04-15T05:31:47;19.90;;;11.40;;
66919;SDS011;53831;52.090;17.026;2023-04-15T05:32:47;18.90;;;11.20;;
66919;SDS011;53831;52.090;17.026;2023-04-15T05:33:48;20.30;;;12.10;;
66919;SDS011;53831;52.090;17.026;2023-04-15T05:34:49;18.30;;;10.70;;
66919;SDS011;53831;52.090;17.026;2023-04-15T05:35:50;19.30;;;11.90;;
66919;SDS011;53831;52.090;17.026;2023-04-15T05:36:50;18.50;;;11.30;;
66919;SDS011;53831;52.090;17.026;2023-04-15T05:37:52;23.00;;;12.50;;
66919;SDS011;53831;52.090;17.026;2023-04-15T05:38:52;18.10;;;11.60;;
66919;SDS011;53831;52.090;17.026;2023-04-15T05:39:53;19.20;;;12.10;;
66919;SDS011;53831;52.090;17.026;2023-04-15T05:40:54;20.00;;;12.20;;
66919;SDS011;53831;52.090;17.026;2023-04-15T05:41:55;17.70;;;11.20;;
66919;SDS011;53831;52.090;17.026;2023-04-15T05:42:57;20.00;;;11.90;;
66919;SDS011;53831;52.090;17.026;2023-04-15T05:43:57;19.80;;;11.50;;
66919;SDS011;53831;52.090;17.026;2023-04-15T05:44:58;21.30;;;12.20;;
66919;SDS011;53831;52.090;17.026;2023-04-15T05:45:59;20.50;;;11.30;;
66919;SDS011;53831;52.090;17.026;2023-04-15T05:47:00;21.70;;;11.80;;
66919;SDS011;53831;52.090;17.026;2023-04-15T05:48:00;18.50;;;11.80;;
66919;SDS011;53831;52.090;17.026;2023-04-15T05:49:01;18.60;;;11.30;;
66919;SDS011;53831;52.090;17.026;2023-04-15T05:50:02;19.20;;;11.50;;
66919;SDS011;53831;52.090;17.026;2023-04-15T05:51:04;21.40;;;11.80;;
66919;SDS011;53831;52.090;17.026;2023-04-15T05:52:04;20.70;;;12.10;;
66919;SDS011;53831;52.090;17.026;2023-04-15T05:53:05;20.10;;;11.80;;
66919;SDS011;53831;52.090;17.026;2023-04-15T05:54:06;20.00;;;11.60;;
66919;SDS011;53831;52.090;17.026;2023-04-15T05:55:07;21.50;;;12.20;;
66919;SDS011;53831;52.090;17.026;2023-04-15T05:56:08;17.80;;;11.50;;
66919;SDS011;53831;52.090;17.026;2023-04-15T05:57:09;18.60;;;11.60;;
66919;SDS011;53831;52.090;17.026;2023-04-15T05:58:09;18.00;;;11.80;;
66919;SDS011;53831;52.090;17.026;2023-04-15T05:59:10;20.80;;;12.40;;
66919;SDS011;53831;52.090;17.026;2023-04-15T06:00:12;21.60;;;12.10;;
66919;SDS011;53831;52.090;17.026;2023-04-15T06:01:13;21.10;;;12.30;;
66919;SDS011;53831;52.090;17.026;2023-04-15T06:02:13;21.40;;;13.20;;
66919;SDS011;53831;52.090;17.026;2023-04-15T06:03:15;20.70;;;13.00;;
66919;SDS011;53831;52.090;17.026;2023-04-15T06:04:16;19.80;;;12.20;;
66919;SDS011;53831;52.090;17.026;2023-04-15T06:05:17;21.60;;;13.10;;
66919;SDS011;53831;52.090;17.026;2023-04-15T06:06:17;21.10;;;12.60;;